sensor_id;sensor_type;location;lat;lon;timestamp;temperature;humidity
32811;DHT22;65470;47.324;8.548;2023-03-23T00:01:24;13.00;99.90
32811;DHT22;65470;47.324;8.548;2023-03-23T00:03:53;12.90;99.90
32811;DHT22;65470;47.324;8.548;2023-03-23T00:06:20;12.90;99.90
32811;DHT22;65470;47.324;8.548;2023-03-23T00:08:50;12.80;99.90
32811;DHT22;65470;47.324;8.548;2023-03-23T00:11:23;12.80;99.90
32811;DHT22;65470;47.324;8.548;2023-03-23T00:13:50;12.80;99.90
32811;DHT22;65470;47.324;8.548;2023-03-23T00:16:18;12.80;99.90
32811;DHT22;65470;47.324;8.548;2023-03-23T00:18:48;12.80;99.90
32811;DHT22;65470;47.324;8.548;2023-03-23T00:21:18;12.90;99.90
32811;DHT22;65470;47.324;8.548;2023-03-23T00:23:43;13.00;99.90
32811;DHT22;65470;47.324;8.548;2023-03-23T00:26:11;13.00;99.90
32811;DHT22;65470;47.324;8.548;2023-03-23T00:28:37;13.10;99.90
32811;DHT22;65470;47.324;8.548;2023-03-23T00:31:06;13.20;99.90
32811;DHT22;65470;47.324;8.548;2023-03-23T00:33:33;13.20;99.90
32811;DHT22;65470;47.324;8.548;2023-03-23T00:36:04;13.20;99.90
32811;DHT22;65470;47.324;8.548;2023-03-23T00:38:30;13.20;99.90
32811;DHT22;65470;47.324;8.548;2023-03-23T00:40:57;13.30;99.90
32811;DHT22;65470;47.324;8.548;2023-03-23T00:43:24;13.20;99.90
32811;DHT22;65470;47.324;8.548;2023-03-23T00:45:50;13.20;99.90
32811;DHT22;65470;47.324;8.548;2023-03-23T00:48:28;13.20;99.90
32811;DHT22;65470;47.324;8.548;2023-03-23T00:50:54;13.20;99.90
32811;DHT22;65470;47.324;8.548;2023-03-23T00:53:21;13.10;99.90
32811;DHT22;65470;47.324;8.548;2023-03-23T00:55:48;13.20;99.90
32811;DHT22;65470;47.324;8.548;2023-03-23T00:58:15;13.20;99.90
32811;DHT22;65470;47.324;8.548;2023-03-23T01:00:41;13.20;99.90
32811;DHT22;65470;47.324;8.548;2023-03-23T01:03:08;13.10;99.90
32811;DHT22;65470;47.324;8.548;2023-03-23T01:05:38;13.10;99.90
32811;DHT22;65470;47.324;8.548;2023-03-23T01:08:05;13.10;99.90
32811;DHT22;65470;47.324;8.548;2023-03-23T01:10:32;13.10;99.90
32811;DHT22;65470;47.324;8.548;2023-03-23T01:12:59;13.00;99.90
32811;DHT22;65470;47.324;8.548;2023-03-23T01:15:26;13.00;99.90
32811;DHT22;65470;47.324;8.548;2023-03-23T01:17:53;12.90;99.90
32811;DHT22;65470;47.324;8.548;2023-03-23T01:20:18;12.90;99.90
32811;DHT22;65470;47.324;8.548;2023-03-23T01:22:44;12.90;99.90
32811;DHT22;65470;47.324;8.548;2023-03-23T01:25:12;12.90;99.90
32811;DHT22;65470;47.324;8.548;2023-03-23T01:27:38;12.90;99.90
32811;DHT22;65470;47.324;8.548;2023-03-23T01:30:05;12.90;99.90
32811;DHT22;65470;47.324;8.548;2023-03-23T01:32:31;12.90;99.90
32811;DHT22;65470;47.324;8.548;2023-03-23T01:34:58;12.90;99.90
32811;DHT22;65470;47.324;8.548;2023-03-23T01:37:24;12.90;99.90
32811;DHT22;65470;47.324;8.548;2023-03-23T01:39:55;12.90;99.90
32811;DHT22;65470;47.324;8.548;2023-03-23T01:42:30;12.90;99.90
32811;DHT22;65470;47.324;8.548;2023-03-23T01:47:48;12.90;99.90
32811;DHT22;65470;47.324;8.548;2023-03-23T01:50:17;13.00;99.90
32811;DHT22;65470;47.324;8.548;2023-03-23T01:52:43;13.00;99.90
32811;DHT22;65470;47.324;8.548;2023-03-23T01:55:09;13.00;99.90
32811;DHT22;65470;47.324;8.548;2023-03-23T01:57:35;12.90;99.90
32811;DHT22;65470;47.324;8.548;2023-03-23T02:00:04;12.90;99.90
32811;DHT22;65470;47.324;8.548;2023-03-23T02:02:40;13.00;99.90
32811;DHT22;65470;47.324;8.548;2023-03-23T02:05:14;13.00;99.90
32811;DHT22;65470;47.324;8.548;2023-03-23T02:07:41;13.10;99.90
32811;DHT22;65470;47.324;8.548;2023-03-23T02:10:08;13.20;99.90
32811;DHT22;65470;47.324;8.548;2023-03-23T02:12:33;13.30;99.90
32811;DHT22;65470;47.324;8.548;2023-03-23T02:15:00;13.30;99.90
32811;DHT22;65470;47.324;8.548;2023-03-23T02:17:40;13.20;99.90
32811;DHT22;65470;47.324;8.548;2023-03-23T02:39:05;12.60;99.90
32811;DHT22;65470;47.324;8.548;2023-03-23T02:41:49;12.70;99.90
32811;DHT22;65470;47.324;8.548;2023-03-23T02:44:17;12.70;99.90
32811;DHT22;65470;47.324;8.548;2023-03-23T02:46:43;12.80;99.90
32811;DHT22;65470;47.324;8.548;2023-03-23T02:49:12;12.80;99.90
32811;DHT22;65470;47.324;8.548;2023-03-23T02:51:40;12.80;99.90
32811;DHT22;65470;47.324;8.548;2023-03-23T02:54:09;12.80;99.90
32811;DHT22;65470;47.324;8.548;2023-03-23T02:56:36;12.70;99.90
32811;DHT22;65470;47.324;8.548;2023-03-23T02:59:03;12.70;99.90
32811;DHT22;65470;47.324;8.548;2023-03-23T03:05:19;13.00;99.90
32811;DHT22;65470;47.324;8.548;2023-03-23T03:13:12;13.30;99.90
32811;DHT22;65470;47.324;8.548;2023-03-23T03:15:47;13.50;99.90
32811;DHT22;65470;47.324;8.548;2023-03-23T03:18:34;13.60;99.90
32811;DHT22;65470;47.324;8.548;2023-03-23T03:21:07;13.70;99.90
32811;DHT22;65470;47.324;8.548;2023-03-23T03:23:36;13.80;99.90
32811;DHT22;65470;47.324;8.548;2023-03-23T03:26:04;13.80;99.90
32811;DHT22;65470;47.324;8.548;2023-03-23T03:28:32;13.90;99.90
32811;DHT22;65470;47.324;8.548;2023-03-23T03:31:01;14.00;99.90
32811;DHT22;65470;47.324;8.548;2023-03-23T03:33:30;14.00;99.90
32811;DHT22;65470;47.324;8.548;2023-03-23T03:35:59;14.10;99.90
32811;DHT22;65470;47.324;8.548;2023-03-23T03:38:26;14.00;99.90
32811;DHT22;65470;47.324;8.548;2023-03-23T03:40:52;13.90;99.90
32811;DHT22;65470;47.324;8.548;2023-03-23T03:43:18;13.80;99.90
32811;DHT22;65470;47.324;8.548;2023-03-23T03:45:44;13.70;99.90
32811;DHT22;65470;47.324;8.548;2023-03-23T03:48:10;13.70;99.90
32811;DHT22;65470;47.324;8.548;2023-03-23T03:50:36;13.70;99.90
32811;DHT22;65470;47.324;8.548;2023-03-23T03:53:02;13.80;99.90
32811;DHT22;65470;47.324;8.548;2023-03-23T03:55:28;13.80;99.90
32811;DHT22;65470;47.324;8.548;2023-03-23T03:57:55;13.80;99.90
32811;DHT22;65470;47.324;8.548;2023-03-23T04:00:21;13.80;99.90
32811;DHT22;65470;47.324;8.548;2023-03-23T04:02:49;13.80;99.90
32811;DHT22;65470;47.324;8.548;2023-03-23T04:05:20;13.70;99.90
32811;DHT22;65470;47.324;8.548;2023-03-23T04:07:46;13.70;99.90
32811;DHT22;65470;47.324;8.548;2023-03-23T04:10:15;13.70;99.90
32811;DHT22;65470;47.324;8.548;2023-03-23T04:12:41;13.70;99.90
32811;DHT22;65470;47.324;8.548;2023-03-23T04:15:07;13.60;99.90
32811;DHT22;65470;47.324;8.548;2023-03-23T04:17:34;13.60;99.90
32811;DHT22;65470;47.324;8.548;2023-03-23T04:19:59;13.50;99.90
32811;DHT22;65470;47.324;8.548;2023-03-23T04:22:27;13.50;99.90
32811;DHT22;65470;47.324;8.548;2023-03-23T04:25:04;13.50;99.90
32811;DHT22;65470;47.324;8.548;2023-03-23T04:27:32;13.40;99.90
32811;DHT22;65470;47.324;8.548;2023-03-23T04:29:58;13.40;99.90
32811;DHT22;65470;47.324;8.548;2023-03-23T04:32:25;13.30;99.90
32811;DHT22;65470;47.324;8.548;2023-03-23T04:34:58;13.30;99.90
32811;DHT22;65470;47.324;8.548;2023-03-23T04:37:27;13.30;99.90
32811;DHT22;65470;47.324;8.548;2023-03-23T04:40:00;13.30;99.90
32811;DHT22;65470;47.324;8.548;2023-03-23T04:42:30;13.30;99.90
32811;DHT22;65470;47.324;8.548;2023-03-23T04:44:59;13.30;99.90
32811;DHT22;65470;47.324;8.548;2023-03-23T04:47:26;13.40;99.90
32811;DHT22;65470;47.324;8.548;2023-03-23T04:49:58;13.50;99.90
32811;DHT22;65470;47.324;8.548;2023-03-23T04:52:27;13.50;99.90
32811;DHT22;65470;47.324;8.548;2023-03-23T04:54:54;13.50;99.90
32811;DHT22;65470;47.324;8.548;2023-03-23T04:57:21;13.50;99.90
32811;DHT22;65470;47.324;8.548;2023-03-23T04:59:47;13.60;99.90
32811;DHT22;65470;47.324;8.548;2023-03-23T05:02:13;13.70;99.90
32811;DHT22;65470;47.324;8.548;2023-03-23T05:04:40;13.70;99.50
32811;DHT22;65470;47.324;8.548;2023-03-23T05:07:07;13.80;99.30
32811;DHT22;65470;47.324;8.548;2023-03-23T05:09:34;13.80;98.90
32811;DHT22;65470;47.324;8.548;2023-03-23T05:12:05;13.90;99.10
32811;DHT22;65470;47.324;8.548;2023-03-23T05:14:31;13.80;99.10
32811;DHT22;65470;47.324;8.548;2023-03-23T05:16:56;13.90;99.60
32811;DHT22;65470;47.324;8.548;2023-03-23T05:19:22;13.80;99.90
32811;DHT22;65470;47.324;8.548;2023-03-23T05:21:48;13.60;99.90
32811;DHT22;65470;47.324;8.548;2023-03-23T05:24:13;13.40;99.90
32811;DHT22;65470;47.324;8.548;2023-03-23T05:26:39;13.40;99.90
32811;DHT22;65470;47.324;8.548;2023-03-23T05:29:04;13.40;99.90
32811;DHT22;65470;47.324;8.548;2023-03-23T05:31:30;13.30;99.90
32811;DHT22;65470;47.324;8.548;2023-03-23T05:33:56;13.40;99.90
32811;DHT22;65470;47.324;8.548;2023-03-23T05:36:22;13.50;99.90
32811;DHT22;65470;47.324;8.548;2023-03-23T05:38:50;13.60;99.90
32811;DHT22;65470;47.324;8.548;2023-03-23T05:41:16;13.60;99.90
32811;DHT22;65470;47.324;8.548;2023-03-23T05:43:42;13.70;99.90
32811;DHT22;65470;47.324;8.548;2023-03-23T05:46:07;13.70;99.90
32811;DHT22;65470;47.324;8.548;2023-03-23T05:48:34;13.80;99.90
32811;DHT22;65470;47.324;8.548;2023-03-23T05:51:00;13.80;99.90
32811;DHT22;65470;47.324;8.548;2023-03-23T05:53:26;13.70;99.90
32811;DHT22;65470;47.324;8.548;2023-03-23T05:55:52;13.60;99.90
32811;DHT22;65470;47.324;8.548;2023-03-23T05:58:18;13.60;99.90
32811;DHT22;65470;47.324;8.548;2023-03-23T06:00:44;13.50;99.90
32811;DHT22;65470;47.324;8.548;2023-03-23T06:03:12;13.30;99.90
32811;DHT22;65470;47.324;8.548;2023-03-23T06:05:42;13.20;99.90
32811;DHT22;65470;47.324;8.548;2023-03-23T06:08:09;13.00;99.90
32811;DHT22;65470;47.324;8.548;2023-03-23T06:10:38;13.00;99.90
32811;DHT22;65470;47.324;8.548;2023-03-23T06:13:04;13.10;99.90
32811;DHT22;65470;47.324;8.548;2023-03-23T06:15:30;13.20;99.90
32811;DHT22;65470;47.324;8.548;2023-03-23T06:18:04;13.30;99.90
32811;DHT22;65470;47.324;8.548;2023-03-23T06:20:31;13.40;99.90
32811;DHT22;65470;47.324;8.548;2023-03-23T06:22:58;13.50;99.90
32811;DHT22;65470;47.324;8.548;2023-03-23T06:25:23;13.70;99.90
32811;DHT22;65470;47.324;8.548;2023-03-23T06:27:49;13.70;99.90
32811;DHT22;65470;47.324;8.548;2023-03-23T06:30:17;13.80;99.90
32811;DHT22;65470;47.324;8.548;2023-03-23T06:32:44;13.90;99.90
32811;DHT22;65470;47.324;8.548;2023-03-23T06:35:13;14.00;99.90
32811;DHT22;65470;47.324;8.548;2023-03-23T06:37:39;14.20;99.90
32811;DHT22;65470;47.324;8.548;2023-03-23T06:40:06;14.30;99.90
32811;DHT22;65470;47.324;8.548;2023-03-23T06:42:36;14.40;99.90
32811;DHT22;65470;47.324;8.548;2023-03-23T06:45:05;14.50;99.90
32811;DHT22;65470;47.324;8.548;2023-03-23T06:47:32;14.60;99.90
32811;DHT22;65470;47.324;8.548;2023-03-23T06:49:59;14.60;99.90
32811;DHT22;65470;47.324;8.548;2023-03-23T06:52:25;14.70;99.90
32811;DHT22;65470;47.324;8.548;2023-03-23T06:54:51;14.80;99.90
32811;DHT22;65470;47.324;8.548;2023-03-23T06:57:18;15.00;99.90
32811;DHT22;65470;47.324;8.548;2023-03-23T06:59:44;14.90;99.90
32811;DHT22;65470;47.324;8.548;2023-03-23T07:02:11;14.70;99.90
32811;DHT22;65470;47.324;8.548;2023-03-23T07:04:38;14.60;99.90
32811;DHT22;65470;47.324;8.548;2023-03-23T07:07:04;14.90;99.90
32811;DHT22;65470;47.324;8.548;2023-03-23T07:09:30;15.20;99.90
32811;DHT22;65470;47.324;8.548;2023-03-23T07:11:56;15.50;99.90
32811;DHT22;65470;47.324;8.548;2023-03-23T07:14:22;15.80;99.30
32811;DHT22;65470;47.324;8.548;2023-03-23T07:16:49;16.00;96.90
32811;DHT22;65470;47.324;8.548;2023-03-23T07:19:14;16.00;96.50
32811;DHT22;65470;47.324;8.548;2023-03-23T07:21:40;15.80;97.10
32811;DHT22;65470;47.324;8.548;2023-03-23T07:24:09;16.00;97.50
32811;DHT22;65470;47.324;8.548;2023-03-23T07:26:36;16.10;96.70
32811;DHT22;65470;47.324;8.548;2023-03-23T07:29:02;16.10;96.80
32811;DHT22;65470;47.324;8.548;2023-03-23T07:31:28;16.20;96.60
32811;DHT22;65470;47.324;8.548;2023-03-23T07:33:54;16.30;96.20
32811;DHT22;65470;47.324;8.548;2023-03-23T07:36:19;16.40;93.90
32811;DHT22;65470;47.324;8.548;2023-03-23T07:38:45;16.10;93.50
32811;DHT22;65470;47.324;8.548;2023-03-23T07:41:11;16.20;91.90
32811;DHT22;65470;47.324;8.548;2023-03-23T07:43:36;16.10;92.70
32811;DHT22;65470;47.324;8.548;2023-03-23T07:46:02;16.10;94.90
32811;DHT22;65470;47.324;8.548;2023-03-23T07:48:28;16.30;95.10
32811;DHT22;65470;47.324;8.548;2023-03-23T07:50:53;16.50;93.60
32811;DHT22;65470;47.324;8.548;2023-03-23T07:53:19;16.50;93.50
32811;DHT22;65470;47.324;8.548;2023-03-23T07:55:46;16.70;93.20
32811;DHT22;65470;47.324;8.548;2023-03-23T07:58:12;16.90;91.80
32811;DHT22;65470;47.324;8.548;2023-03-23T08:00:43;17.00;92.40
32811;DHT22;65470;47.324;8.548;2023-03-23T08:03:09;17.30;91.80
32811;DHT22;65470;47.324;8.548;2023-03-23T08:05:35;17.50;90.70
32811;DHT22;65470;47.324;8.548;2023-03-23T08:08:00;17.60;87.30
32811;DHT22;65470;47.324;8.548;2023-03-23T08:10:26;17.30;87.10
32811;DHT22;65470;47.324;8.548;2023-03-23T08:12:55;17.20;84.60
32811;DHT22;65470;47.324;8.548;2023-03-23T08:15:21;17.10;84.20
32811;DHT22;65470;47.324;8.548;2023-03-23T08:17:48;17.30;84.80
32811;DHT22;65470;47.324;8.548;2023-03-23T08:20:13;17.60;84.70
32811;DHT22;65470;47.324;8.548;2023-03-23T08:22:42;17.80;82.60
32811;DHT22;65470;47.324;8.548;2023-03-23T08:25:10;18.00;82.20
32811;DHT22;65470;47.324;8.548;2023-03-23T08:27:37;18.10;79.60
32811;DHT22;65470;47.324;8.548;2023-03-23T08:30:04;18.30;77.70
32811;DHT22;65470;47.324;8.548;2023-03-23T08:32:32;18.40;78.90
32811;DHT22;65470;47.324;8.548;2023-03-23T08:34:58;18.30;75.50
32811;DHT22;65470;47.324;8.548;2023-03-23T08:37:24;18.40;77.30
32811;DHT22;65470;47.324;8.548;2023-03-23T08:39:55;18.50;77.60
32811;DHT22;65470;47.324;8.548;2023-03-23T08:42:26;18.40;79.50
32811;DHT22;65470;47.324;8.548;2023-03-23T08:44:52;18.40;80.90
32811;DHT22;65470;47.324;8.548;2023-03-23T08:47:18;18.40;80.30
32811;DHT22;65470;47.324;8.548;2023-03-23T08:49:44;18.40;79.80
32811;DHT22;65470;47.324;8.548;2023-03-23T08:52:11;18.60;80.30
32811;DHT22;65470;47.324;8.548;2023-03-23T08:54:36;18.80;79.50
32811;DHT22;65470;47.324;8.548;2023-03-23T08:57:03;18.80;79.20
32811;DHT22;65470;47.324;8.548;2023-03-23T08:59:29;18.80;78.70
32811;DHT22;65470;47.324;8.548;2023-03-23T09:01:55;18.90;78.70
32811;DHT22;65470;47.324;8.548;2023-03-23T09:04:21;18.80;77.80
32811;DHT22;65470;47.324;8.548;2023-03-23T09:06:47;18.50;76.90
32811;DHT22;65470;47.324;8.548;2023-03-23T09:09:13;18.20;77.30
32811;DHT22;65470;47.324;8.548;2023-03-23T09:11:39;18.10;77.90
32811;DHT22;65470;47.324;8.548;2023-03-23T09:14:06;18.20;77.90
32811;DHT22;65470;47.324;8.548;2023-03-23T09:16:35;18.10;77.50
32811;DHT22;65470;47.324;8.548;2023-03-23T09:19:01;18.20;77.60
32811;DHT22;65470;47.324;8.548;2023-03-23T09:21:28;18.10;78.00
32811;DHT22;65470;47.324;8.548;2023-03-23T09:23:55;18.00;77.80
32811;DHT22;65470;47.324;8.548;2023-03-23T09:26:24;18.10;76.50
32811;DHT22;65470;47.324;8.548;2023-03-23T09:28:50;18.20;76.50
32811;DHT22;65470;47.324;8.548;2023-03-23T09:31:17;18.40;74.70
32811;DHT22;65470;47.324;8.548;2023-03-23T09:33:46;18.70;74.40
32811;DHT22;65470;47.324;8.548;2023-03-23T09:36:12;18.90;73.90
32811;DHT22;65470;47.324;8.548;2023-03-23T09:38:40;19.10;73.40
32811;DHT22;65470;47.324;8.548;2023-03-23T09:47:38;19.40;70.10
32811;DHT22;65470;47.324;8.548;2023-03-23T09:50:28;19.60;68.10
32811;DHT22;65470;47.324;8.548;2023-03-23T09:53:19;19.60;68.00
32811;DHT22;65470;47.324;8.548;2023-03-23T09:55:46;19.70;66.90
32811;DHT22;65470;47.324;8.548;2023-03-23T10:00:49;19.90;67.20
32811;DHT22;65470;47.324;8.548;2023-03-23T10:03:20;19.90;66.60
32811;DHT22;65470;47.324;8.548;2023-03-23T10:05:51;20.00;65.80
32811;DHT22;65470;47.324;8.548;2023-03-23T10:08:31;20.10;65.90
32811;DHT22;65470;47.324;8.548;2023-03-23T10:11:19;20.20;67.10
32811;DHT22;65470;47.324;8.548;2023-03-23T10:16:48;20.20;65.80
32811;DHT22;65470;47.324;8.548;2023-03-23T10:19:41;20.10;65.40
32811;DHT22;65470;47.324;8.548;2023-03-23T10:22:11;20.10;65.60
32811;DHT22;65470;47.324;8.548;2023-03-23T10:24:54;20.00;67.20
32811;DHT22;65470;47.324;8.548;2023-03-23T10:27:34;20.10;66.70
32811;DHT22;65470;47.324;8.548;2023-03-23T10:30:29;20.20;66.20
32811;DHT22;65470;47.324;8.548;2023-03-23T10:33:00;20.10;65.40
32811;DHT22;65470;47.324;8.548;2023-03-23T10:35:33;20.20;65.70
32811;DHT22;65470;47.324;8.548;2023-03-23T10:38:04;20.20;66.50
32811;DHT22;65470;47.324;8.548;2023-03-23T10:40:31;20.20;65.50
32811;DHT22;65470;47.324;8.548;2023-03-23T10:43:00;20.30;66.00
32811;DHT22;65470;47.324;8.548;2023-03-23T10:45:28;20.40;66.40
32811;DHT22;65470;47.324;8.548;2023-03-23T10:48:17;20.50;66.10
32811;DHT22;65470;47.324;8.548;2023-03-23T10:50:48;20.40;65.90
32811;DHT22;65470;47.324;8.548;2023-03-23T10:55:55;20.50;65.00
32811;DHT22;65470;47.324;8.548;2023-03-23T10:58:29;20.70;64.90
32811;DHT22;65470;47.324;8.548;2023-03-23T11:00:56;20.90;63.60
32811;DHT22;65470;47.324;8.548;2023-03-23T11:03:34;21.10;63.30
32811;DHT22;65470;47.324;8.548;2023-03-23T11:06:03;21.50;65.40
32811;DHT22;65470;47.324;8.548;2023-03-23T11:08:34;21.90;63.50
32811;DHT22;65470;47.324;8.548;2023-03-23T11:11:15;22.20;65.60
32811;DHT22;65470;47.324;8.548;2023-03-23T11:13:46;22.60;62.30
32811;DHT22;65470;47.324;8.548;2023-03-23T11:16:28;22.70;61.10
32811;DHT22;65470;47.324;8.548;2023-03-23T11:18:55;22.70;60.80
32811;DHT22;65470;47.324;8.548;2023-03-23T11:21:22;22.60;61.50
32811;DHT22;65470;47.324;8.548;2023-03-23T11:23:53;22.70;60.00
32811;DHT22;65470;47.324;8.548;2023-03-23T11:26:30;22.80;59.40
32811;DHT22;65470;47.324;8.548;2023-03-23T11:31:38;22.70;60.80
32811;DHT22;65470;47.324;8.548;2023-03-23T11:34:21;22.50;60.40
32811;DHT22;65470;47.324;8.548;2023-03-23T11:36:49;22.30;60.00
32811;DHT22;65470;47.324;8.548;2023-03-23T11:39:28;22.60;59.80
32811;DHT22;65470;47.324;8.548;2023-03-23T11:41:56;22.40;60.20
32811;DHT22;65470;47.324;8.548;2023-03-23T11:44:23;22.50;60.00
32811;DHT22;65470;47.324;8.548;2023-03-23T11:47:11;22.50;62.50
32811;DHT22;65470;47.324;8.548;2023-03-23T11:50:52;22.70;61.50
32811;DHT22;65470;47.324;8.548;2023-03-23T11:53:13;23.00;58.30
32811;DHT22;65470;47.324;8.548;2023-03-23T11:58:16;23.30;58.30
32811;DHT22;65470;47.324;8.548;2023-03-23T12:00:58;23.20;59.70
32811;DHT22;65470;47.324;8.548;2023-03-23T12:17:15;22.40;59.90
32811;DHT22;65470;47.324;8.548;2023-03-23T12:28:07;22.10;59.40
32811;DHT22;65470;47.324;8.548;2023-03-23T12:36:50;22.20;59.80
32811;DHT22;65470;47.324;8.548;2023-03-23T12:44:47;22.10;59.90
32811;DHT22;65470;47.324;8.548;2023-03-23T12:47:36;22.20;60.70
32811;DHT22;65470;47.324;8.548;2023-03-23T12:52:55;22.70;57.80
32811;DHT22;65470;47.324;8.548;2023-03-23T12:55:38;22.80;58.20
32811;DHT22;65470;47.324;8.548;2023-03-23T12:58:17;22.80;58.10
32811;DHT22;65470;47.324;8.548;2023-03-23T13:01:06;22.40;59.70
32811;DHT22;65470;47.324;8.548;2023-03-23T13:06:23;22.30;60.30
32811;DHT22;65470;47.324;8.548;2023-03-23T13:09:02;22.50;60.00
32811;DHT22;65470;47.324;8.548;2023-03-23T13:11:39;22.30;58.80
32811;DHT22;65470;47.324;8.548;2023-03-23T13:28:34;23.30;58.90
32811;DHT22;65470;47.324;8.548;2023-03-23T13:31:17;23.60;58.40
32811;DHT22;65470;47.324;8.548;2023-03-23T13:33:52;23.60;58.20
32811;DHT22;65470;47.324;8.548;2023-03-23T13:36:28;23.70;56.80
32811;DHT22;65470;47.324;8.548;2023-03-23T13:38:56;23.50;56.90
32811;DHT22;65470;47.324;8.548;2023-03-23T13:41:25;22.90;58.10
32811;DHT22;65470;47.324;8.548;2023-03-23T13:43:51;22.60;59.00
32811;DHT22;65470;47.324;8.548;2023-03-23T13:46:29;22.40;59.20
32811;DHT22;65470;47.324;8.548;2023-03-23T13:49:17;22.30;59.70
32811;DHT22;65470;47.324;8.548;2023-03-23T13:54:29;21.90;63.90
32811;DHT22;65470;47.324;8.548;2023-03-23T13:56:59;21.70;62.30
32811;DHT22;65470;47.324;8.548;2023-03-23T14:01:55;21.30;64.20
32811;DHT22;65470;47.324;8.548;2023-03-23T14:04:23;21.10;64.90
32811;DHT22;65470;47.324;8.548;2023-03-23T14:06:57;21.10;65.70
32811;DHT22;65470;47.324;8.548;2023-03-23T14:09:38;21.10;67.50
32811;DHT22;65470;47.324;8.548;2023-03-23T14:12:13;21.20;64.80
32811;DHT22;65470;47.324;8.548;2023-03-23T14:14:51;21.30;65.70
32811;DHT22;65470;47.324;8.548;2023-03-23T14:17:26;21.40;65.70
32811;DHT22;65470;47.324;8.548;2023-03-23T14:19:54;21.40;63.00
32811;DHT22;65470;47.324;8.548;2023-03-23T14:24:50;21.00;63.70
32811;DHT22;65470;47.324;8.548;2023-03-23T14:27:19;21.00;64.50
32811;DHT22;65470;47.324;8.548;2023-03-23T14:29:46;20.90;64.10
32811;DHT22;65470;47.324;8.548;2023-03-23T14:32:17;20.80;64.10
32811;DHT22;65470;47.324;8.548;2023-03-23T14:34:47;20.70;64.20
32811;DHT22;65470;47.324;8.548;2023-03-23T14:37:14;20.70;64.00
32811;DHT22;65470;47.324;8.548;2023-03-23T14:39:45;20.70;64.50
32811;DHT22;65470;47.324;8.548;2023-03-23T14:42:16;20.60;63.70
32811;DHT22;65470;47.324;8.548;2023-03-23T14:44:45;20.70;64.00
32811;DHT22;65470;47.324;8.548;2023-03-23T14:47:36;20.80;63.60
32811;DHT22;65470;47.324;8.548;2023-03-23T14:50:06;20.80;64.20
32811;DHT22;65470;47.324;8.548;2023-03-23T14:52:38;20.60;65.10
32811;DHT22;65470;47.324;8.548;2023-03-23T14:55:21;20.50;66.00
32811;DHT22;65470;47.324;8.548;2023-03-23T14:57:48;20.50;65.80
32811;DHT22;65470;47.324;8.548;2023-03-23T15:02:43;20.50;64.80
32811;DHT22;65470;47.324;8.548;2023-03-23T15:05:15;20.40;65.70
32811;DHT22;65470;47.324;8.548;2023-03-23T15:07:46;20.10;64.90
32811;DHT22;65470;47.324;8.548;2023-03-23T15:10:19;20.00;67.00
32811;DHT22;65470;47.324;8.548;2023-03-23T15:12:46;20.00;66.00
32811;DHT22;65470;47.324;8.548;2023-03-23T15:15:31;20.20;66.30
32811;DHT22;65470;47.324;8.548;2023-03-23T15:17:59;20.10;66.20
32811;DHT22;65470;47.324;8.548;2023-03-23T15:20:46;20.00;66.10
32811;DHT22;65470;47.324;8.548;2023-03-23T15:23:26;20.10;67.00
32811;DHT22;65470;47.324;8.548;2023-03-23T15:25:54;19.90;67.20
32811;DHT22;65470;47.324;8.548;2023-03-23T15:28:22;19.80;66.00
32811;DHT22;65470;47.324;8.548;2023-03-23T15:30:54;19.70;66.70
32811;DHT22;65470;47.324;8.548;2023-03-23T15:33:22;19.80;66.80
32811;DHT22;65470;47.324;8.548;2023-03-23T15:35:53;19.70;67.60
32811;DHT22;65470;47.324;8.548;2023-03-23T15:38:37;19.60;67.30
32811;DHT22;65470;47.324;8.548;2023-03-23T15:41:06;19.60;68.10
32811;DHT22;65470;47.324;8.548;2023-03-23T15:44:08;19.40;67.70
32811;DHT22;65470;47.324;8.548;2023-03-23T15:46:34;19.50;67.80
32811;DHT22;65470;47.324;8.548;2023-03-23T15:51:30;19.50;67.10
32811;DHT22;65470;47.324;8.548;2023-03-23T15:53:57;19.60;67.20
32811;DHT22;65470;47.324;8.548;2023-03-23T15:56:23;19.60;67.70
32811;DHT22;65470;47.324;8.548;2023-03-23T15:58:50;19.60;66.90
32811;DHT22;65470;47.324;8.548;2023-03-23T16:01:21;19.50;66.90
32811;DHT22;65470;47.324;8.548;2023-03-23T16:06:26;19.30;68.20
32811;DHT22;65470;47.324;8.548;2023-03-23T16:08:53;19.30;68.80
32811;DHT22;65470;47.324;8.548;2023-03-23T16:11:18;19.20;69.10
32811;DHT22;65470;47.324;8.548;2023-03-23T16:13:45;19.20;69.10
32811;DHT22;65470;47.324;8.548;2023-03-23T16:16:18;19.10;69.60
32811;DHT22;65470;47.324;8.548;2023-03-23T16:18:45;19.20;69.90
32811;DHT22;65470;47.324;8.548;2023-03-23T16:21:10;19.30;69.60
32811;DHT22;65470;47.324;8.548;2023-03-23T16:23:37;19.30;69.80
32811;DHT22;65470;47.324;8.548;2023-03-23T16:26:05;19.40;70.00
32811;DHT22;65470;47.324;8.548;2023-03-23T16:28:31;19.30;69.80
32811;DHT22;65470;47.324;8.548;2023-03-23T16:30:57;19.20;69.60
32811;DHT22;65470;47.324;8.548;2023-03-23T16:33:23;19.20;70.10
32811;DHT22;65470;47.324;8.548;2023-03-23T16:35:48;19.10;70.30
32811;DHT22;65470;47.324;8.548;2023-03-23T16:38:15;19.10;70.50
32811;DHT22;65470;47.324;8.548;2023-03-23T16:40:42;19.00;70.60
32811;DHT22;65470;47.324;8.548;2023-03-23T16:43:09;19.00;70.50
32811;DHT22;65470;47.324;8.548;2023-03-23T16:45:36;19.00;70.60
32811;DHT22;65470;47.324;8.548;2023-03-23T16:48:02;18.90;71.90
32811;DHT22;65470;47.324;8.548;2023-03-23T16:50:28;18.90;71.70
32811;DHT22;65470;47.324;8.548;2023-03-23T16:52:54;18.80;71.90
32811;DHT22;65470;47.324;8.548;2023-03-23T16:55:20;18.80;72.20
32811;DHT22;65470;47.324;8.548;2023-03-23T16:57:46;18.80;72.20
32811;DHT22;65470;47.324;8.548;2023-03-23T17:00:16;18.80;72.90
32811;DHT22;65470;47.324;8.548;2023-03-23T17:02:47;18.80;72.70
32811;DHT22;65470;47.324;8.548;2023-03-23T17:05:13;18.70;73.60
32811;DHT22;65470;47.324;8.548;2023-03-23T17:07:41;18.70;74.30
32811;DHT22;65470;47.324;8.548;2023-03-23T17:10:09;18.60;73.60
32811;DHT22;65470;47.324;8.548;2023-03-23T17:12:35;18.60;73.60
32811;DHT22;65470;47.324;8.548;2023-03-23T17:15:00;18.60;74.80
32811;DHT22;65470;47.324;8.548;2023-03-23T17:17:26;18.50;74.20
32811;DHT22;65470;47.324;8.548;2023-03-23T17:19:52;18.50;74.40
32811;DHT22;65470;47.324;8.548;2023-03-23T17:22:17;18.50;74.60
32811;DHT22;65470;47.324;8.548;2023-03-23T17:24:43;18.50;75.50
32811;DHT22;65470;47.324;8.548;2023-03-23T17:27:12;18.50;75.00
32811;DHT22;65470;47.324;8.548;2023-03-23T17:29:38;18.50;75.20
32811;DHT22;65470;47.324;8.548;2023-03-23T17:32:04;18.40;75.30
32811;DHT22;65470;47.324;8.548;2023-03-23T17:34:30;18.30;75.40
32811;DHT22;65470;47.324;8.548;2023-03-23T17:36:56;18.30;76.40
32811;DHT22;65470;47.324;8.548;2023-03-23T17:39:21;18.30;76.60
32811;DHT22;65470;47.324;8.548;2023-03-23T17:41:47;18.30;78.40
32811;DHT22;65470;47.324;8.548;2023-03-23T17:44:13;18.20;77.20